Time;durP1;ratioP1;P1;durP2;ratioP2;P2;SDS_P1;SDS_P2;PMS_P1;PMS_P2;Temp;Humidity;BMP_temperature;BMP_pressure;BME280_temperature;BME280_humidity;BME280_pressure;Samples;Min_cycle;Max_cycle;Signal;HPM_P1;HPM_P2
2021/05/04 00:02:24;;;;;;;366.98;123.28;;;6.40;99.90;;;;;;5035822;28;20247;-80
2021/05/04 00:04:50;;;;;;;384.38;122.65;;;6.50;99.90;;;;;;5036667;28;20670;-80
2021/05/04 00:07:16;;;;;;;373.38;117.80;;;6.40;99.90;;;;;;5035536;28;20243;-80
2021/05/04 00:09:42;;;;;;;377.40;112.55;;;6.30;99.90;;;;;;5035823;28;20239;-79
2021/05/04 00:12:09;;;;;;;359.70;112.90;;;6.40;99.90;;;;;;5037160;28;20230;-80
2021/05/04 00:14:35;;;;;;;359.45;114.90;;;6.40;99.90;;;;;;5036646;28;20207;-80
2021/05/04 00:17:02;;;;;;;371.05;117.45;;;6.50;99.90;;;;;;5036830;28;20678;-79
2021/05/04 00:19:29;;;;;;;311.80;114.50;;;6.50;99.90;;;;;;5036390;28;20222;-80
2021/05/04 00:21:56;;;;;;;371.98;114.65;;;6.50;99.90;;;;;;5037073;28;20251;-79
2021/05/04 00:24:22;;;;;;;371.83;110.28;;;6.50;99.90;;;;;;5037901;28;20243;-80
2021/05/04 00:26:48;;;;;;;370.90;112.05;;;6.50;99.90;;;;;;5039890;28;20227;-80
2021/05/04 00:29:14;;;;;;;372.15;110.20;;;6.50;99.90;;;;;;5040431;28;20219;-80
2021/05/04 00:31:40;;;;;;;369.13;111.22;;;6.60;99.90;;;;;;5039919;28;20224;-80
2021/05/04 00:34:06;;;;;;;363.73;115.30;;;6.60;99.90;;;;;;5039443;28;20231;-80
2021/05/04 00:36:33;;;;;;;371.92;110.63;;;6.70;99.90;;;;;;5040030;28;20580;-81
2021/05/04 00:38:59;;;;;;;374.85;110.95;;;6.80;99.90;;;;;;5037873;28;20204;-80
2021/05/04 00:41:25;;;;;;;368.08;113.65;;;6.80;99.90;;;;;;5038185;28;20234;-80
2021/05/04 00:43:52;;;;;;;363.75;118.80;;;6.80;99.90;;;;;;5037238;28;20225;-81
2021/05/04 00:46:18;;;;;;;370.92;114.47;;;6.80;99.90;;;;;;5037853;28;20204;-81
2021/05/04 00:48:44;;;;;;;362.38;120.60;;;6.80;99.90;;;;;;5038564;28;20200;-80
2021/05/04 00:51:10;;;;;;;365.20;117.60;;;6.70;99.90;;;;;;5037805;28;20232;-80
2021/05/04 00:53:37;;;;;;;363.67;114.07;;;6.80;99.90;;;;;;5038036;28;20590;-80
2021/05/04 00:56:04;;;;;;;368.95;115.45;;;7.10;99.90;;;;;;5037991;28;20207;-81
2021/05/04 00:58:34;;;;;;;372.50;124.15;;;6.80;99.90;;;;;;5038043;28;20552;-80
2021/05/04 01:01:00;;;;;;;353.70;116.28;;;6.80;99.90;;;;;;5037545;28;20307;-81
2021/05/04 01:03:26;;;;;;;362.65;118.22;;;6.80;99.90;;;;;;5037249;28;20257;-80
2021/05/04 01:05:52;;;;;;;367.77;118.88;;;6.90;99.90;;;;;;5037899;28;20216;-79
2021/05/04 01:08:18;;;;;;;370.80;119.00;;;6.80;99.90;;;;;;5035892;28;20231;-79
2021/05/04 01:10:45;;;;;;;356.55;111.85;;;6.80;99.90;;;;;;5035986;28;20278;-79
2021/05/04 01:13:12;;;;;;;358.95;119.25;;;6.90;99.90;;;;;;5035040;28;20278;-80
2021/05/04 01:15:40;;;;;;;357.55;118.07;;;6.90;99.90;;;;;;5036657;28;20200;-79
2021/05/04 01:18:06;;;;;;;310.02;119.72;;;6.90;99.90;;;;;;5036873;28;20208;-80
2021/05/04 01:20:34;;;;;;;356.90;116.63;;;7.00;99.90;;;;;;5034712;28;20203;-79
2021/05/04 01:23:01;;;;;;;314.20;118.00;;;7.20;99.90;;;;;;5033987;28;20262;-79
2021/05/04 01:25:27;;;;;;;361.00;123.40;;;6.90;99.90;;;;;;5034933;28;20260;-81
2021/05/04 01:27:53;;;;;;;327.15;119.72;;;6.90;99.90;;;;;;5036596;28;20208;-80
2021/05/04 01:30:20;;;;;;;345.20;120.95;;;6.90;99.90;;;;;;5034599;28;20717;-80
2021/05/04 01:32:46;;;;;;;326.67;116.45;;;6.90;99.90;;;;;;5033255;27;20208;-79
2021/05/04 01:35:12;;;;;;;339.20;119.13;;;7.10;99.90;;;;;;5034040;28;20204;-79
2021/05/04 01:37:39;;;;;;;297.45;124.40;;;6.90;99.90;;;;;;5034064;28;20322;-80
2021/05/04 01:40:07;;;;;;;322.50;119.53;;;6.80;99.90;;;;;;5037321;28;20211;-80
2021/05/04 01:42:34;;;;;;;365.25;119.63;;;6.80;99.90;;;;;;5036361;28;20253;-80
2021/05/04 01:45:00;;;;;;;327.73;122.28;;;6.70;99.90;;;;;;5038330;28;20204;-80
2021/05/04 01:47:26;;;;;;;293.30;121.22;;;6.80;99.90;;;;;;5041084;28;20229;-80
2021/05/04 01:49:52;;;;;;;53.10;49.10;;;6.80;99.90;;;;;;5041324;28;20272;-80
2021/05/04 01:52:18;;;;;;;38.85;36.78;;;6.80;99.90;;;;;;5040566;28;20231;-80
2021/05/04 01:54:44;;;;;;;14.77;13.73;;;6.90;99.90;;;;;;5040721;28;20211;-79
2021/05/04 01:57:11;;;;;;;13.63;12.40;;;6.80;99.90;;;;;;5040292;28;20203;-80
2021/05/04 01:59:37;;;;;;;15.27;14.18;;;6.80;99.90;;;;;;5043492;28;20705;-80
2021/05/04 02:02:03;;;;;;;24.25;22.95;;;6.80;99.90;;;;;;5042568;28;20224;-80
2021/05/04 02:04:31;;;;;;;20.73;19.52;;;6.80;99.90;;;;;;5043609;28;20587;-79
2021/05/04 02:06:58;;;;;;;13.10;12.23;;;6.80;99.90;;;;;;5042388;28;20207;-80
2021/05/04 02:09:24;;;;;;;13.20;12.38;;;6.70;99.90;;;;;;5037198;28;20220;-80
2021/05/04 02:11:50;;;;;;;10.32;9.43;;;6.80;99.90;;;;;;5035531;28;20220;-79
2021/05/04 02:14:17;;;;;;;9.18;8.48;;;6.70;99.90;;;;;;5036928;28;20212;-80
2021/05/04 02:16:43;;;;;;;8.15;7.45;;;6.80;99.90;;;;;;5036070;28;20204;-80
2021/05/04 02:19:09;;;;;;;6.82;6.20;;;6.80;99.90;;;;;;5036250;28;20239;-80
2021/05/04 02:21:35;;;;;;;11.20;10.30;;;6.80;99.90;;;;;;5035892;28;20237;-81
2021/05/04 02:24:01;;;;;;;8.55;7.85;;;6.80;99.90;;;;;;5034411;28;20318;-81
2021/05/04 02:26:27;;;;;;;7.95;6.90;;;6.80;99.90;;;;;;5035643;28;20242;-80
2021/05/04 02:28:53;;;;;;;7.25;6.70;;;6.80;99.90;;;;;;5036882;28;20214;-80
2021/05/04 02:31:20;;;;;;;6.97;6.28;;;6.90;99.90;;;;;;5037997;28;20224;-80
2021/05/04 02:33:47;;;;;;;7.97;7.38;;;6.90;99.90;;;;;;5036375;28;20208;-81
2021/05/04 02:36:13;;;;;;;9.05;8.35;;;6.80;99.90;;;;;;5034450;28;20207;-80
2021/05/04 02:38:40;;;;;;;6.63;6.03;;;6.80;99.90;;;;;;5033242;28;20272;-79
2021/05/04 02:41:07;;;;;;;7.05;6.50;;;6.90;99.90;;;;;;5033833;28;20219;-80
2021/05/04 02:43:35;;;;;;;8.80;7.13;;;6.90;99.90;;;;;;5033929;28;20211;-81
2021/05/04 02:46:02;;;;;;;6.95;6.35;;;6.80;99.90;;;;;;5035340;28;20211;-80
2021/05/04 02:48:29;;;;;;;8.38;7.78;;;6.80;99.90;;;;;;5034719;28;20203;-80
2021/05/04 02:50:55;;;;;;;7.28;6.68;;;6.80;99.90;;;;;;5034325;28;20249;-80
2021/05/04 02:53:21;;;;;;;8.02;7.32;;;6.90;99.90;;;;;;5035397;28;20284;-81
2021/05/04 02:55:48;;;;;;;6.65;6.05;;;7.30;99.90;;;;;;5035778;28;20215;-80
2021/05/04 02:58:14;;;;;;;8.05;7.00;;;6.90;99.90;;;;;;5041199;28;20203;-80
2021/05/04 03:00:40;;;;;;;10.00;9.18;;;6.90;99.90;;;;;;5044259;28;20210;-80
2021/05/04 03:03:06;;;;;;;9.85;7.05;;;6.90;99.90;;;;;;5044457;28;20207;-81
2021/05/04 03:05:33;;;;;;;6.47;5.88;;;6.90;99.90;;;;;;5046598;28;20211;-82
2021/05/04 03:07:59;;;;;;;6.78;5.95;;;6.90;99.90;;;;;;5044772;28;20218;-81
2021/05/04 03:10:25;;;;;;;8.60;7.80;;;6.80;99.90;;;;;;5044581;28;20252;-81
2021/05/04 03:12:51;;;;;;;9.60;6.82;;;6.90;99.90;;;;;;5046885;28;20360;-81
2021/05/04 03:15:17;;;;;;;7.25;6.65;;;7.00;99.90;;;;;;5046123;28;20203;-80
2021/05/04 03:17:44;;;;;;;9.43;8.38;;;7.00;99.90;;;;;;5047757;28;20209;-79
2021/05/04 03:20:11;;;;;;;8.25;7.55;;;7.10;99.90;;;;;;5046858;28;20199;-80
2021/05/04 03:22:38;;;;;;;8.07;7.32;;;6.90;99.90;;;;;;5046983;27;20560;-80
2021/05/04 03:25:05;;;;;;;9.65;8.75;;;7.00;99.90;;;;;;5048177;28;20200;-80
2021/05/04 03:27:31;;;;;;;8.30;7.60;;;7.00;99.90;;;;;;5047734;28;20199;-80
2021/05/04 03:29:57;;;;;;;9.02;8.23;;;7.10;99.90;;;;;;5048305;28;20223;-80
2021/05/04 03:32:23;;;;;;;6.28;5.63;;;7.20;99.90;;;;;;5047029;28;20224;-80
2021/05/04 03:34:49;;;;;;;7.68;6.88;;;7.20;99.90;;;;;;5048895;28;20218;-80
2021/05/04 03:37:15;;;;;;;9.32;8.32;;;7.10;99.90;;;;;;5051083;28;20200;-81
2021/05/04 03:39:42;;;;;;;7.35;6.57;;;7.20;99.90;;;;;;5047801;28;20221;-80
2021/05/04 03:42:08;;;;;;;7.55;6.85;;;7.20;99.90;;;;;;5052475;28;20231;-81
2021/05/04 03:44:34;;;;;;;15.20;13.00;;;7.20;99.90;;;;;;5050752;28;20233;-79
2021/05/04 03:47:01;;;;;;;8.35;7.40;;;7.20;99.90;;;;;;5048499;28;20213;-80
2021/05/04 03:49:27;;;;;;;9.05;8.25;;;7.70;99.90;;;;;;5046750;28;20215;-81
2021/05/04 03:51:53;;;;;;;9.50;8.20;;;7.30;99.90;;;;;;5044624;28;20265;-81
2021/05/04 03:54:19;;;;;;;8.85;8.02;;;7.30;99.90;;;;;;5050826;28;20204;-81
2021/05/04 03:56:46;;;;;;;9.60;8.32;;;7.30;99.90;;;;;;5050609;28;20203;-81
2021/05/04 03:59:12;;;;;;;8.23;6.43;;;7.30;99.90;;;;;;5049360;28;20721;-80
2021/05/04 04:01:38;;;;;;;12.20;11.23;;;7.80;99.90;;;;;;5042954;28;20257;-80
2021/05/04 04:04:04;;;;;;;10.07;9.18;;;7.40;99.90;;;;;;5043480;28;20215;-80
2021/05/04 04:06:31;;;;;;;9.35;8.57;;;7.40;99.90;;;;;;5042412;28;20200;-80
2021/05/04 04:08:57;;;;;;;10.52;9.52;;;7.40;99.90;;;;;;5041007;28;20203;-79
2021/05/04 04:11:23;;;;;;;9.85;8.95;;;7.70;99.90;;;;;;5040211;28;20228;-79
2021/05/04 04:13:50;;;;;;;9.70;8.45;;;7.50;99.90;;;;;;5040028;28;20230;-80
2021/05/04 04:16:16;;;;;;;10.18;7.78;;;7.40;99.90;;;;;;5037286;28;20238;-80
2021/05/04 04:18:42;;;;;;;10.20;9.20;;;7.50;99.90;;;;;;5036432;28;20216;-79
2021/05/04 04:21:08;;;;;;;9.60;8.70;;;7.90;99.90;;;;;;5038511;28;20224;-78
2021/05/04 04:23:34;;;;;;;9.15;8.30;;;7.60;99.90;;;;;;5039597;28;20735;-78
2021/05/04 04:26:00;;;;;;;13.27;12.07;;;8.30;99.90;;;;;;5036447;28;20588;-78
2021/05/04 04:28:26;;;;;;;10.40;9.60;;;7.90;99.90;;;;;;5040013;28;20246;-80
2021/05/04 04:30:53;;;;;;;10.73;9.65;;;7.90;99.90;;;;;;5039540;28;20648;-79
2021/05/04 04:33:23;;;;;;;10.75;9.77;;;7.90;99.90;;;;;;5037386;28;20232;-79
2021/05/04 04:35:49;;;;;;;10.50;9.13;;;7.70;99.90;;;;;;5036196;28;20610;-78
2021/05/04 04:38:15;;;;;;;11.25;10.10;;;8.00;99.90;;;;;;5036063;28;20480;-79
2021/05/04 04:40:43;;;;;;;10.15;9.35;;;7.90;99.90;;;;;;5035442;28;20251;-80
2021/05/04 04:43:09;;;;;;;11.68;10.68;;;7.90;99.90;;;;;;5035889;28;20200;-79
2021/05/04 04:45:35;;;;;;;11.98;10.95;;;7.90;99.90;;;;;;5036936;28;20211;-79
2021/05/04 04:48:02;;;;;;;88.68;84.43;;;7.90;99.90;;;;;;5036558;28;20438;-78
2021/05/04 04:50:28;;;;;;;11.00;9.43;;;8.20;99.90;;;;;;5038418;28;20504;-79
2021/05/04 04:52:54;;;;;;;11.27;10.27;;;7.80;99.90;;;;;;5039130;28;20451;-80
2021/05/04 04:55:20;;;;;;;9.53;8.63;;;8.00;99.90;;;;;;5039246;28;20203;-79
2021/05/04 04:57:46;;;;;;;8.98;7.95;;;8.10;99.90;;;;;;5039228;28;20453;-80
2021/05/04 05:00:13;;;;;;;8.00;6.70;;;8.10;99.90;;;;;;5044467;28;20514;-79
2021/05/04 05:02:40;;;;;;;8.45;7.43;;;8.10;99.90;;;;;;5037810;28;20813;-79
2021/05/04 05:05:08;;;;;;;10.33;8.00;;;8.20;99.90;;;;;;5038234;28;20674;-79
2021/05/04 05:07:34;;;;;;;7.73;7.03;;;8.20;99.90;;;;;;5039187;28;20457;-80
2021/05/04 05:10:00;;;;;;;9.80;8.23;;;8.20;99.90;;;;;;5037638;28;20478;-80
2021/05/04 05:12:27;;;;;;;7.40;6.80;;;8.20;99.90;;;;;;5038564;28;20473;-80
2021/05/04 05:14:53;;;;;;;8.80;8.03;;;8.30;99.90;;;;;;5037680;28;20887;-79
2021/05/04 05:17:20;;;;;;;12.13;7.33;;;8.30;99.90;;;;;;5036750;28;20450;-80
2021/05/04 05:19:46;;;;;;;9.67;7.73;;;8.30;99.90;;;;;;5036209;28;20482;-79
2021/05/04 05:22:14;;;;;;;11.17;9.10;;;8.10;99.90;;;;;;5036553;28;20527;-79
2021/05/04 05:24:40;;;;;;;16.93;9.93;;;8.20;99.90;;;;;;5037476;28;20450;-81
2021/05/04 05:27:06;;;;;;;10.23;8.73;;;8.40;99.90;;;;;;5037841;28;20939;-79
2021/05/04 05:29:34;;;;;;;11.73;10.63;;;8.30;99.90;;;;;;5037054;28;20254;-80
2021/05/04 05:32:00;;;;;;;11.10;10.10;;;8.40;99.90;;;;;;5036922;28;20475;-80
2021/05/04 05:34:26;;;;;;;7.53;6.80;;;8.40;99.90;;;;;;5037049;28;20832;-80
2021/05/04 05:36:52;;;;;;;11.90;9.80;;;8.40;99.90;;;;;;5036869;28;20457;-80
2021/05/04 05:39:20;;;;;;;9.33;8.50;;;;;;;;;;5041192;28;20472;-79
2021/05/04 05:41:46;;;;;;;10.17;9.20;;;8.80;99.90;;;;;;5047619;28;20469;-79
2021/05/04 05:44:13;;;;;;;9.60;8.73;;;8.60;99.90;;;;;;5046700;28;20442;-79
2021/05/04 05:46:41;;;;;;;8.23;7.43;;;9.00;99.90;;;;;;5046124;28;20536;-80
2021/05/04 05:49:07;;;;;;;8.10;7.50;;;8.80;99.90;;;;;;5038305;28;20677;-79
2021/05/04 05:51:33;;;;;;;10.70;9.73;;;8.90;99.90;;;;;;5040900;28;20483;-80
2021/05/04 05:53:59;;;;;;;10.17;9.27;;;9.00;99.90;;;;;;5044618;28;20525;-80
2021/05/04 05:56:26;;;;;;;11.83;10.93;;;9.00;99.90;;;;;;5046024;28;20447;-80
2021/05/04 05:58:52;;;;;;;10.03;9.13;;;9.10;99.90;;;;;;5044689;28;20449;-80
2021/05/04 06:01:18;;;;;;;7.30;6.60;;;9.20;99.90;;;;;;5043032;28;20494;-79
2021/05/04 06:03:44;;;;;;;9.97;9.03;;;9.30;99.90;;;;;;5055270;27;20455;-79
2021/05/04 06:06:10;;;;;;;13.60;12.40;;;9.40;99.90;;;;;;5046201;27;20472;-79
2021/05/04 06:08:37;;;;;;;13.70;12.40;;;9.60;99.90;;;;;;5042370;28;20462;-80
2021/05/04 06:11:03;;;;;;;10.33;9.17;;;9.60;99.90;;;;;;5040081;28;20555;-80
2021/05/04 06:13:30;;;;;;;8.40;7.60;;;9.80;99.90;;;;;;5039658;28;20451;-79
2021/05/04 06:15:56;;;;;;;8.90;8.00;;;9.90;99.90;;;;;;5043780;28;20458;-79
2021/05/04 06:18:22;;;;;;;8.87;7.47;;;10.10;99.90;;;;;;5042874;28;20454;-79
2021/05/04 06:20:48;;;;;;;7.50;6.80;;;10.30;99.90;;;;;;5046452;28;20796;-79
2021/05/04 06:23:14;;;;;;;8.97;8.07;;;10.50;99.90;;;;;;5045929;28;20442;-81
2021/05/04 06:25:40;;;;;;;6.63;5.80;;;10.50;99.90;;;;;;5045545;28;20458;-80
2021/05/04 06:28:08;;;;;;;7.67;6.97;;;10.70;99.90;;;;;;5042143;28;20457;-80
2021/05/04 06:30:36;;;;;;;10.03;8.93;;;10.90;99.90;;;;;;5039441;28;20486;-78
2021/05/04 06:33:04;;;;;;;11.83;7.70;;;10.90;99.90;;;;;;5035343;28;20876;-80
2021/05/04 06:35:30;;;;;;;12.07;8.57;;;11.00;99.90;;;;;;5034479;28;20474;-79
2021/05/04 06:37:56;;;;;;;11.83;10.70;;;11.10;99.90;;;;;;5034447;28;20459;-80
2021/05/04 06:40:22;;;;;;;7.70;6.80;;;11.10;99.90;;;;;;5034584;28;20502;-78
2021/05/04 06:42:48;;;;;;;16.17;14.60;;;11.50;99.90;;;;;;5035250;28;20478;-79
2021/05/04 06:45:15;;;;;;;18.10;16.83;;;11.20;99.90;;;;;;5033818;28;20450;-79
2021/05/04 06:47:42;;;;;;;8.60;7.80;;;11.40;99.90;;;;;;5035630;28;20439;-80
2021/05/04 06:50:09;;;;;;;19.20;17.67;;;11.60;99.90;;;;;;5036733;28;20482;-79
2021/05/04 06:52:35;;;;;;;12.80;11.57;;;11.60;99.90;;;;;;5037232;28;21049;-79
2021/05/04 06:55:01;;;;;;;15.53;14.33;;;11.60;99.90;;;;;;5036823;28;20443;-80
2021/05/04 06:57:27;;;;;;;10.53;9.53;;;12.00;99.90;;;;;;5040061;28;20516;-79
2021/05/04 06:59:53;;;;;;;55.93;52.60;;;11.70;99.90;;;;;;5046776;28;20447;-79
2021/05/04 07:02:19;;;;;;;15.60;14.20;;;11.80;99.90;;;;;;5049042;28;20451;-79
2021/05/04 07:04:46;;;;;;;10.53;9.50;;;11.70;99.90;;;;;;5050613;28;20461;-79
2021/05/04 07:07:12;;;;;;;11.57;10.67;;;11.70;99.90;;;;;;5050543;28;20455;-79
2021/05/04 07:09:39;;;;;;;11.57;10.60;;;11.80;99.90;;;;;;5051055;28;20478;-79
2021/05/04 07:12:05;;;;;;;7.13;6.63;;;11.80;99.90;;;;;;5053907;28;20813;-78
2021/05/04 07:14:32;;;;;;;14.70;13.70;;;11.80;99.90;;;;;;5052740;28;20442;-79
2021/05/04 07:17:00;;;;;;;12.97;11.93;;;11.30;99.90;;;;;;5052281;28;20450;-79
2021/05/04 07:19:26;;;;;;;11.50;10.50;;;12.20;99.90;;;;;;5047943;28;20442;-78
2021/05/04 07:21:53;;;;;;;9.73;8.93;;;12.00;99.90;;;;;;5045736;28;21030;-78
2021/05/04 07:24:20;;;;;;;18.43;17.07;;;11.90;99.90;;;;;;5044255;28;20442;-79
2021/05/04 07:26:46;;;;;;;14.73;13.63;;;11.90;99.90;;;;;;5042127;28;20479;-78
2021/05/04 07:29:12;;;;;;;18.77;17.73;;;11.90;99.90;;;;;;5041104;28;20450;-78
2021/05/04 07:31:38;;;;;;;24.70;23.27;;;11.80;99.90;;;;;;5042251;28;20462;-78
2021/05/04 07:34:04;;;;;;;25.67;24.27;;;11.60;99.90;;;;;;5040997;28;20453;-79
2021/05/04 07:36:31;;;;;;;27.73;26.27;;;11.70;99.90;;;;;;5041266;28;20442;-78
2021/05/04 07:38:58;;;;;;;30.73;29.20;;;11.80;99.90;;;;;;5041020;28;20455;-78
2021/05/04 07:41:25;;;;;;;35.37;33.40;;;11.80;99.90;;;;;;5043714;28;20454;-79
2021/05/04 07:43:51;;;;;;;41.00;38.83;;;11.60;99.90;;;;;;5052260;28;20989;-79
2021/05/04 07:46:18;;;;;;;31.50;29.70;;;11.80;99.90;;;;;;5051222;28;20950;-79
2021/05/04 07:48:44;;;;;;;47.83;45.73;;;11.70;99.90;;;;;;5049255;28;20436;-78
2021/05/04 07:51:10;;;;;;;58.67;56.10;;;10.90;99.90;;;;;;5050827;28;20477;-78
2021/05/04 07:53:36;;;;;;;80.40;76.70;;;11.00;99.90;;;;;;5050942;28;20475;-80
2021/05/04 07:56:03;;;;;;;73.30;69.90;;;10.90;99.90;;;;;;5053084;28;20460;-79
2021/05/04 07:58:30;;;;;;;62.83;59.73;;;10.60;99.90;;;;;;5051478;28;20458;-79
2021/05/04 08:00:56;;;;;;;235.87;174.73;;;10.50;99.90;;;;;;5050449;28;20558;-79
2021/05/04 08:03:22;;;;;;;95.00;90.00;;;10.30;99.90;;;;;;5048966;28;20447;-79
2021/05/04 08:05:50;;;;;;;105.97;100.47;;;10.20;99.90;;;;;;5048818;28;20421;-80
2021/05/04 08:08:16;;;;;;;149.27;140.00;;;10.20;99.90;;;;;;5046979;28;20499;-79
2021/05/04 08:10:42;;;;;;;116.03;109.50;;;10.10;99.90;;;;;;5041057;28;20488;-80
2021/05/04 08:13:09;;;;;;;334.70;185.98;;;10.20;99.90;;;;;;5039376;28;20944;-80
2021/05/04 08:15:36;;;;;;;336.77;198.00;;;10.30;99.90;;;;;;5037149;28;20674;-80
2021/05/04 08:18:04;;;;;;;320.00;182.75;;;10.40;99.90;;;;;;5048142;28;20215;-80
2021/05/04 08:20:32;;;;;;;306.97;180.47;;;10.60;99.90;;;;;;5047805;28;20200;-79
2021/05/04 08:22:59;;;;;;;363.67;178.57;;;10.90;99.90;;;;;;5048095;28;20457;-79
2021/05/04 08:25:25;;;;;;;140.40;131.90;;;11.00;99.90;;;;;;5042997;28;20295;-79
2021/05/04 08:27:52;;;;;;;262.40;188.83;;;10.90;99.90;;;;;;5039905;28;20447;-80
2021/05/04 08:30:20;;;;;;;338.70;186.40;;;11.20;99.90;;;;;;5038598;28;20482;-80
2021/05/04 08:32:47;;;;;;;242.57;182.27;;;11.20;99.90;;;;;;5038228;28;20468;-80
2021/05/04 08:35:14;;;;;;;286.87;197.70;;;11.10;99.90;;;;;;5037887;28;20454;-80
2021/05/04 08:37:40;;;;;;;268.03;183.50;;;11.10;99.90;;;;;;5039177;28;20489;-80
2021/05/04 08:40:07;;;;;;;293.53;202.60;;;11.30;99.90;;;;;;5038379;28;20489;-80
2021/05/04 08:42:33;;;;;;;273.03;197.60;;;11.40;99.90;;;;;;5038041;28;20480;-80
2021/05/04 08:45:03;;;;;;;249.37;188.80;;;11.40;99.90;;;;;;5037644;28;20941;-80
2021/05/04 08:47:30;;;;;;;254.17;199.20;;;11.50;99.90;;;;;;5037777;28;20474;-79
2021/05/04 08:49:56;;;;;;;220.37;189.77;;;11.60;99.90;;;;;;5037641;28;20486;-79
2021/05/04 08:52:22;;;;;;;255.50;197.80;;;11.60;99.90;;;;;;5037298;28;20486;-79
2021/05/04 08:54:48;;;;;;;237.67;206.77;;;11.70;99.90;;;;;;5035876;28;20421;-80
2021/05/04 08:57:15;;;;;;;265.60;198.53;;;11.70;99.90;;;;;;5036994;28;20450;-79
2021/05/04 08:59:41;;;;;;;269.30;203.30;;;11.70;99.90;;;;;;5037915;28;20450;-80
2021/05/04 09:02:07;;;;;;;269.03;195.73;;;12.10;99.90;;;;;;5039473;28;20836;-79
2021/05/04 09:04:38;;;;;;;251.73;202.97;;;11.80;99.90;;;;;;5040006;28;20446;-80
2021/05/04 09:07:17;;;;;;;311.60;204.30;;;11.90;99.90;;;;;;5039099;28;20492;-80
2021/05/04 09:10:03;;;;;;;224.03;200.63;;;12.20;99.90;;;;;;5038071;28;20513;-79
2021/05/04 09:12:37;;;;;;;244.60;215.63;;;12.30;99.90;;;;;;5038452;28;20440;-79
2021/05/04 09:15:51;;;;;;;253.60;227.17;;;12.30;99.90;;;;;;5038636;28;20435;-80
2021/05/04 09:18:39;;;;;;;239.87;214.47;;;12.30;99.90;;;;;;5037703;28;20458;-79
2021/05/04 09:21:07;;;;;;;244.70;210.73;;;12.60;99.90;;;;;;5036499;28;20791;-79
2021/05/04 09:23:33;;;;;;;289.63;211.37;;;12.70;99.90;;;;;;5039577;28;20945;-79
2021/05/04 09:25:59;;;;;;;250.47;219.70;;;12.80;99.90;;;;;;5037583;28;20447;-79
2021/05/04 09:28:25;;;;;;;247.53;222.07;;;12.70;99.90;;;;;;5037311;28;20417;-79
2021/05/04 09:30:52;;;;;;;255.43;211.87;;;12.50;99.90;;;;;;5037505;28;20529;-79
2021/05/04 09:33:19;;;;;;;270.00;216.00;;;12.60;99.90;;;;;;5037643;28;20465;-80
2021/05/04 09:35:45;;;;;;;295.20;215.80;;;12.70;99.90;;;;;;5037296;28;20446;-80
2021/05/04 09:38:13;;;;;;;290.77;224.33;;;12.70;99.90;;;;;;5038893;28;20446;-79
2021/05/04 09:40:41;;;;;;;383.87;241.37;;;13.00;99.90;;;;;;5039772;28;20439;-80
2021/05/04 09:43:10;;;;;;;384.97;249.63;;;12.80;99.90;;;;;;5038089;28;20446;-80
2021/05/04 09:45:39;;;;;;;404.53;244.07;;;13.10;99.90;;;;;;5037869;28;20446;-80
2021/05/04 09:48:10;;;;;;;305.50;269.27;;;13.30;99.90;;;;;;5039248;28;20453;-79
2021/05/04 09:50:47;;;;;;;337.70;247.93;;;13.60;99.90;;;;;;5037453;28;20517;-79
2021/05/04 09:53:16;;;;;;;372.90;254.80;;;13.70;99.90;;;;;;5036582;28;20394;-80
2021/05/04 09:55:54;;;;;;;405.73;258.97;;;13.80;99.90;;;;;;5036881;28;20475;-80
2021/05/04 09:58:40;;;;;;;393.53;261.40;;;13.80;99.90;;;;;;5037219;28;20485;-80
2021/05/04 10:01:11;;;;;;;389.47;272.60;;;14.00;99.90;;;;;;5038895;28;20474;-80
2021/05/04 10:03:40;;;;;;;393.27;272.70;;;14.00;99.90;;;;;;5038473;28;20457;-79
2021/05/04 10:06:08;;;;;;;354.77;307.70;;;14.20;99.90;;;;;;5037306;28;20442;-79
2021/05/04 10:08:36;;;;;;;393.57;290.50;;;14.40;99.90;;;;;;5034012;28;20450;-79
2021/05/04 10:11:04;;;;;;;432.50;301.53;;;14.70;99.90;;;;;;5034178;28;20497;-79
2021/05/04 10:13:32;;;;;;;408.33;295.33;;;14.60;99.90;;;;;;5034538;28;20451;-78
2021/05/04 10:15:59;;;;;;;426.30;296.37;;;14.60;99.90;;;;;;5034633;28;20446;-79
2021/05/04 10:18:28;;;;;;;429.97;304.40;;;14.60;99.90;;;;;;5036421;28;20461;-80
2021/05/04 10:20:57;;;;;;;320.33;298.80;;;14.60;99.90;;;;;;5038904;28;20812;-79
2021/05/04 10:23:24;;;;;;;339.53;304.73;;;14.60;99.90;;;;;;5040613;28;20436;-80
2021/05/04 10:25:52;;;;;;;350.37;294.90;;;14.60;99.90;;;;;;5036158;28;20446;-79
2021/05/04 10:28:21;;;;;;;323.70;290.70;;;14.70;99.90;;;;;;5035234;28;20457;-79
2021/05/04 10:30:47;;;;;;;423.27;314.57;;;14.70;99.90;;;;;;5036087;28;20863;-80
2021/05/04 10:33:28;;;;;;;426.77;323.10;;;14.70;99.90;;;;;;5035376;28;20469;-79
2021/05/04 10:35:55;;;;;;;379.87;316.60;;;14.60;99.90;;;;;;5035439;28;20796;-79
2021/05/04 10:38:21;;;;;;;394.17;321.07;;;;;;;;;;5035790;28;20451;-79
2021/05/04 10:41:00;;;;;;;435.23;331.37;;;14.80;99.90;;;;;;5035430;28;20466;-79
2021/05/04 10:43:40;;;;;;;364.27;325.03;;;15.00;99.90;;;;;;5038503;28;20435;-78
2021/05/04 10:46:11;;;;;;;430.37;329.70;;;15.00;99.90;;;;;;5037860;28;20529;-78
2021/05/04 10:48:45;;;;;;;434.40;317.87;;;15.00;99.90;;;;;;5035547;28;20937;-79
2021/05/04 10:51:13;;;;;;;349.20;306.60;;;14.90;99.90;;;;;;5035833;28;21065;-79
2021/05/04 10:54:02;;;;;;;343.73;300.67;;;14.80;99.90;;;;;;5035906;28;20880;-80
2021/05/04 10:56:34;;;;;;;339.93;300.87;;;14.50;99.90;;;;;;5035035;28;20437;-79
2021/05/04 10:59:01;;;;;;;341.47;302.60;;;14.50;99.90;;;;;;5035337;28;20425;-78
2021/05/04 11:01:27;;;;;;;400.17;314.33;;;14.60;99.90;;;;;;5035830;28;20522;-79
2021/05/04 11:03:55;;;;;;;431.47;304.33;;;14.70;99.90;;;;;;5035054;28;20453;-80
2021/05/04 11:06:44;;;;;;;428.30;314.77;;;14.70;99.90;;;;;;5035605;28;20443;-79
2021/05/04 11:09:17;;;;;;;386.70;302.13;;;14.70;99.90;;;;;;5036709;28;20454;-79
2021/05/04 11:11:47;;;;;;;358.10;304.50;;;14.80;99.90;;;;;;5038854;28;20514;-81
2021/05/04 11:14:32;;;;;;;359.83;315.60;;;14.70;99.90;;;;;;5037038;28;20433;-80
2021/05/04 11:17:12;;;;;;;361.23;314.30;;;15.10;99.90;;;;;;5034055;28;21016;-79
2021/05/04 11:19:41;;;;;;;386.00;325.00;;;15.10;99.90;;;;;;5033730;28;20398;-79
2021/05/04 11:22:10;;;;;;;364.57;324.77;;;15.10;99.90;;;;;;5033829;28;20470;-79
2021/05/04 11:24:42;;;;;;;426.70;313.20;;;15.20;99.90;;;;;;5035569;28;20507;-80
2021/05/04 11:27:31;;;;;;;370.00;310.67;;;15.10;99.90;;;;;;5035962;28;20437;-80
2021/05/04 11:30:01;;;;;;;418.37;297.70;;;14.90;99.90;;;;;;5036534;27;20482;-80
2021/05/04 11:32:42;;;;;;;422.97;299.80;;;14.90;99.90;;;;;;5035522;28;20839;-80
2021/05/04 11:35:09;;;;;;;403.13;316.10;;;15.00;99.90;;;;;;5035789;28;20452;-81
2021/05/04 11:37:45;;;;;;;424.77;318.03;;;14.90;99.90;;;;;;5037001;28;20446;-79
2021/05/04 11:40:24;;;;;;;403.33;334.47;;;14.80;99.90;;;;;;5043548;28;20916;-79
2021/05/04 11:42:52;;;;;;;391.00;326.03;;;14.70;99.90;;;;;;5043525;28;20486;-79
2021/05/04 11:45:20;;;;;;;594.15;542.83;;;14.60;99.90;;;;;;5042957;28;20471;-79
2021/05/04 11:47:48;;;;;;;433.87;387.87;;;14.80;99.90;;;;;;5045336;28;20208;-80
2021/05/04 11:50:15;;;;;;;418.03;345.70;;;14.80;99.90;;;;;;5047008;28;20474;-80
2021/05/04 11:52:44;;;;;;;417.10;321.67;;;14.80;99.90;;;;;;5045581;28;20487;-80
2021/05/04 11:55:16;;;;;;;393.00;324.70;;;14.80;99.90;;;;;;5046679;28;20443;-80
2021/05/04 11:57:44;;;;;;;377.07;335.70;;;14.80;99.90;;;;;;5047690;28;20442;-79
2021/05/04 12:00:15;;;;;;;401.50;315.37;;;14.80;99.90;;;;;;5042971;28;20471;-79
2021/05/04 12:02:41;;;;;;;379.97;325.97;;;14.80;99.90;;;;;;5038230;28;20478;-79
2021/05/04 12:05:08;;;;;;;426.55;379.80;;;14.70;99.90;;;;;;5040388;28;20449;-79
2021/05/04 12:07:40;;;;;;;398.40;339.10;;;14.60;99.90;;;;;;5044071;28;20226;-80
2021/05/04 12:10:22;;;;;;;433.70;335.50;;;14.60;99.90;;;;;;5043220;28;20466;-80
2021/05/04 12:12:49;;;;;;;388.50;325.43;;;14.60;99.90;;;;;;5044481;28;20435;-80
2021/05/04 12:15:18;;;;;;;430.97;318.20;;;14.60;99.90;;;;;;5042955;27;20507;-80
2021/05/04 12:17:58;;;;;;;401.60;338.80;;;14.60;99.90;;;;;;5044883;28;20454;-80
2021/05/04 12:20:26;;;;;;;443.37;339.37;;;15.10;99.90;;;;;;5043505;28;20426;-79
2021/05/04 12:22:53;;;;;;;425.30;305.33;;;14.50;99.90;;;;;;5048360;28;20479;-80
2021/05/04 12:25:22;;;;;;;425.87;292.50;;;14.40;99.90;;;;;;5049030;28;20457;-80
2021/05/04 12:27:49;;;;;;;427.10;297.70;;;14.40;99.90;;;;;;5048683;28;20503;-79
2021/05/04 12:30:21;;;;;;;420.50;296.40;;;14.50;99.90;;;;;;5043344;28;20489;-80
2021/05/04 12:32:49;;;;;;;412.07;310.27;;;14.50;99.90;;;;;;5037841;28;20435;-79